createdAt,value
2022-07-28T00:01:25.301Z,2.50
2022-07-28T00:06:27.649Z,2.83
2022-07-28T00:11:29.918Z,2.70
2022-07-28T00:16:32.246Z,2.63
2022-07-28T00:21:34.869Z,2.80
2022-07-28T00:26:37.185Z,2.50
2022-07-28T00:31:39.503Z,2.67
2022-07-28T00:36:41.987Z,2.77
2022-07-28T00:41:43.883Z,2.90
2022-07-28T00:46:46.217Z,3.10
2022-07-28T00:51:48.895Z,2.77
2022-07-28T00:56:50.808Z,3.43
2022-07-28T01:01:54.518Z,3.10
2022-07-28T01:07:27.308Z,3.33
2022-07-28T01:12:35.506Z,3.00
2022-07-28T01:17:49.051Z,3.63
2022-07-28T01:23:32.043Z,3.40
2022-07-28T01:28:42.531Z,3.43
2022-07-28T01:33:53.115Z,3.23
2022-07-28T01:38:57.534Z,3.40
2022-07-28T01:44:02.910Z,3.60
2022-07-28T01:49:06.311Z,4.10
2022-07-28T01:54:11.133Z,3.97
2022-07-28T01:59:13.837Z,3.67
2022-07-28T02:04:18.686Z,4.07
2022-07-28T02:09:22.777Z,4.10
2022-07-28T02:14:27.358Z,3.77
2022-07-28T02:19:31.869Z,3.53
2022-07-28T02:24:35.004Z,3.60
2022-07-28T02:29:51.255Z,3.97
2022-07-28T02:34:55.496Z,3.70
2022-07-28T02:40:00.813Z,4.10
2022-07-28T02:45:06.276Z,4.00
2022-07-28T02:50:09.413Z,3.90
2022-07-28T02:55:14.470Z,3.93
2022-07-28T03:00:16.750Z,4.03
2022-07-28T03:05:19.504Z,4.30
2022-07-28T03:10:33.591Z,4.50
2022-07-28T03:15:37.561Z,3.70
2022-07-28T03:20:40.184Z,4.43
2022-07-28T03:25:48.534Z,4.13
2022-07-28T03:31:01.497Z,4.23
2022-07-28T03:36:08.736Z,4.37
2022-07-28T03:41:11.424Z,4.03
2022-07-28T03:46:13.695Z,5.07
2022-07-28T03:51:15.739Z,3.90
2022-07-28T03:56:17.686Z,4.70
2022-07-28T04:01:19.998Z,4.70
2022-07-28T04:06:22.411Z,4.97
2022-07-28T04:11:24.279Z,4.50
2022-07-28T04:16:26.194Z,4.57
2022-07-28T04:21:28.504Z,4.60
2022-07-28T04:26:30.762Z,4.33
2022-07-28T04:31:32.765Z,4.70
2022-07-28T04:36:41.873Z,4.53
2022-07-28T04:41:43.751Z,4.10
2022-07-28T04:46:45.837Z,4.30
2022-07-28T04:51:50.589Z,4.80
2022-07-28T04:56:52.676Z,4.40
2022-07-28T05:01:57.243Z,5.00
2022-07-28T05:06:59.560Z,4.70
2022-07-28T05:12:01.465Z,4.47
2022-07-28T05:17:03.474Z,3.80
2022-07-28T05:22:06.280Z,4.60
2022-07-28T05:27:08.178Z,3.80
2022-07-28T05:32:17.023Z,5.00
2022-07-28T05:37:19.850Z,4.10
2022-07-28T05:42:22.114Z,4.10
2022-07-28T05:47:23.990Z,5.00
2022-07-28T05:52:27.532Z,4.43
2022-07-28T05:57:29.381Z,4.40
2022-07-28T06:02:31.723Z,4.00
2022-07-28T06:07:43.839Z,4.30
2022-07-28T06:12:48.348Z,4.90
2022-07-28T06:17:52.646Z,4.67
2022-07-28T06:22:55.494Z,4.73
2022-07-28T06:28:00.748Z,5.50
2022-07-28T06:33:05.490Z,4.70
2022-07-28T06:38:07.297Z,4.47
2022-07-28T06:43:09.547Z,4.80
2022-07-28T06:48:13.694Z,4.13
2022-07-28T06:53:15.671Z,5.37
2022-07-28T06:58:17.946Z,4.40
2022-07-28T07:03:19.802Z,4.90
2022-07-28T07:08:21.691Z,4.90
2022-07-28T07:13:23.657Z,4.93
2022-07-28T07:18:26.741Z,5.63
2022-07-28T07:23:29.006Z,4.80
2022-07-28T07:28:31.446Z,5.27
2022-07-28T07:33:33.377Z,4.93
2022-07-28T07:38:35.649Z,4.77
2022-07-28T07:43:37.903Z,4.60
2022-07-28T07:48:40.325Z,4.87
2022-07-28T07:53:42.612Z,5.27
2022-07-28T07:58:47.188Z,5.20
2022-07-28T08:03:50.142Z,5.03
2022-07-28T08:08:52.817Z,5.07
2022-07-28T08:13:55.096Z,4.90
2022-07-28T08:19:00.202Z,5.00
2022-07-28T08:24:03.897Z,4.67
2022-07-28T08:29:06.226Z,4.90
2022-07-28T08:34:26.338Z,5.03
2022-07-28T08:39:31.919Z,4.57
2022-07-28T08:44:45.229Z,5.20
2022-07-28T08:49:48.750Z,4.80
2022-07-28T08:54:51.807Z,4.63
2022-07-28T08:59:54.156Z,4.50
2022-07-28T09:04:56.821Z,4.70
2022-07-28T09:10:02.544Z,4.53
2022-07-28T09:15:06.062Z,4.93
2022-07-28T09:20:11.037Z,5.33
2022-07-28T09:25:19.420Z,6.17
2022-07-28T09:30:36.140Z,5.30
2022-07-28T09:36:04.564Z,4.30
2022-07-28T09:41:07.473Z,4.60
2022-07-28T09:46:15.253Z,4.30
2022-07-28T09:51:27.588Z,4.03
2022-07-28T09:56:31.926Z,3.43
2022-07-28T10:01:49.605Z,4.33
2022-07-28T10:07:01.100Z,4.00
2022-07-28T10:12:20.452Z,3.87
2022-07-28T10:17:26.664Z,3.83
2022-07-28T10:22:33.587Z,4.13
2022-07-28T10:27:36.153Z,4.23
2022-07-28T10:32:42.442Z,8.50
2022-07-28T10:37:53.896Z,4.13
2022-07-28T10:42:56.730Z,3.67
2022-07-28T10:47:59.644Z,3.67
2022-07-28T10:53:05.307Z,3.20
2022-07-28T10:58:14.223Z,3.60
2022-07-28T11:03:40.448Z,2.93
2022-07-28T11:08:43.172Z,3.80
2022-07-28T11:13:51.590Z,3.70
2022-07-28T11:19:40.113Z,4.03
2022-07-28T11:24:53.643Z,3.90
2022-07-28T11:29:56.356Z,5.80
2022-07-28T11:35:06.638Z,3.70
2022-07-28T11:40:27.445Z,3.57
2022-07-28T11:45:38.407Z,3.73
2022-07-28T11:50:42.723Z,3.80
2022-07-28T11:55:55.498Z,5.73
2022-07-28T12:01:21.263Z,3.70
2022-07-28T12:06:28.719Z,3.50
2022-07-28T12:11:33.047Z,3.63
2022-07-28T12:16:36.524Z,3.67
2022-07-28T12:21:48.025Z,3.87
2022-07-28T12:26:52.625Z,3.70
2022-07-28T12:31:58.872Z,3.70
2022-07-28T12:37:03.106Z,3.80
2022-07-28T12:42:09.611Z,3.37
2022-07-28T12:47:13.046Z,3.40
2022-07-28T12:52:22.917Z,3.67
2022-07-28T12:57:51.675Z,3.53
2022-07-28T13:02:56.514Z,2.97
2022-07-28T13:08:03.647Z,3.07
2022-07-28T13:13:07.780Z,2.53
2022-07-28T13:18:10.164Z,3.63
2022-07-28T13:23:12.524Z,3.20
2022-07-28T13:28:27.110Z,3.13
2022-07-28T13:33:29.088Z,2.83
2022-07-28T13:38:31.184Z,2.97
2022-07-28T13:43:35.949Z,3.23
2022-07-28T13:49:00.043Z,2.90
2022-07-28T13:54:02.406Z,3.00
2022-07-28T13:59:07.303Z,2.90
2022-07-28T14:04:14.811Z,2.80
2022-07-28T14:09:21.488Z,3.50
2022-07-28T14:14:24.960Z,2.83
2022-07-28T14:19:37.863Z,2.90
2022-07-28T14:24:42.521Z,2.93
2022-07-28T14:29:45.634Z,2.80
2022-07-28T14:34:47.508Z,3.00
2022-07-28T14:39:49.764Z,3.40
2022-07-28T14:44:51.913Z,3.23
2022-07-28T14:49:58.062Z,2.80
2022-07-28T14:55:00.700Z,3.20
2022-07-28T15:00:05.497Z,3.23
2022-07-28T15:05:08.621Z,3.43
2022-07-28T15:10:10.776Z,3.13
2022-07-28T15:15:13.366Z,3.43
2022-07-28T15:20:15.680Z,4.57
2022-07-28T15:25:18.097Z,3.13
2022-07-28T15:30:20.366Z,3.13
2022-07-28T15:35:23.333Z,3.20
2022-07-28T15:40:25.300Z,3.00
2022-07-28T15:45:27.636Z,3.20
2022-07-28T15:50:30.628Z,3.33
2022-07-28T15:55:32.558Z,3.93
2022-07-28T16:00:34.864Z,4.07
2022-07-28T16:05:36.724Z,2.93
2022-07-28T16:10:39.002Z,3.50
2022-07-28T16:15:40.880Z,3.57
2022-07-28T16:20:43.138Z,3.70
2022-07-28T16:25:45.829Z,3.37
2022-07-28T16:30:48.036Z,4.23
2022-07-28T16:35:50.400Z,3.90
2022-07-28T16:40:54.707Z,3.50
2022-07-28T16:45:57.058Z,3.40
2022-07-28T16:50:59.474Z,3.40
2022-07-28T16:56:02.091Z,3.27
2022-07-28T17:01:04.443Z,3.70
2022-07-28T17:06:07.220Z,3.27
2022-07-28T17:11:09.470Z,4.67
2022-07-28T17:16:12.055Z,3.50
2022-07-28T17:21:14.398Z,3.60
2022-07-28T17:27:31.685Z,4.47
2022-07-28T17:31:39.036Z,3.33
2022-07-28T17:36:42.304Z,3.90
2022-07-28T17:41:44.205Z,3.90
2022-07-28T17:46:47.809Z,5.37
2022-07-28T17:51:50.144Z,6.33
2022-07-28T17:56:52.930Z,5.60
2022-07-28T18:01:55.954Z,6.53
2022-07-28T18:06:58.252Z,5.90
2022-07-28T18:12:00.493Z,6.17
2022-07-28T18:17:02.855Z,5.70
2022-07-28T18:22:05.404Z,5.37
2022-07-28T18:27:07.668Z,5.27
2022-07-28T18:32:10.471Z,5.87
2022-07-28T18:37:12.872Z,5.77
2022-07-28T18:42:15.912Z,6.03
2022-07-28T18:47:17.815Z,6.40
2022-07-28T18:52:20.157Z,5.97
2022-07-28T18:57:22.039Z,6.50
2022-07-28T19:02:26.346Z,5.60
2022-07-28T19:07:28.824Z,5.40
2022-07-28T19:12:31.482Z,7.40
2022-07-28T19:17:34.036Z,5.77
2022-07-28T19:22:36.297Z,4.80
2022-07-28T19:27:38.584Z,4.43
2022-07-28T19:32:41.823Z,5.43
2022-07-28T19:37:44.765Z,5.57
2022-07-28T19:42:50.234Z,5.30
2022-07-28T19:47:52.086Z,3.40
2022-07-28T19:52:54.382Z,3.80
2022-07-28T19:58:02.271Z,3.33
2022-07-28T20:04:00.168Z,3.23
2022-07-28T20:08:29.512Z,3.13
2022-07-28T20:13:31.830Z,3.00
2022-07-28T20:18:34.183Z,2.87
2022-07-28T20:23:38.595Z,2.60
2022-07-28T20:28:40.902Z,2.57
2022-07-28T20:33:43.162Z,3.57
2022-07-28T20:38:45.420Z,2.53
2022-07-28T20:44:05.020Z,2.63
2022-07-28T20:49:09.692Z,2.50
2022-07-28T20:54:11.906Z,2.47
2022-07-28T20:59:14.685Z,2.27
2022-07-28T21:04:17.929Z,2.30
2022-07-28T21:09:23.366Z,2.10
2022-07-28T21:14:25.612Z,2.63
2022-07-28T21:19:28.083Z,2.80
2022-07-28T21:24:30.377Z,2.60
2022-07-28T21:29:32.327Z,2.70
2022-07-28T21:34:35.192Z,2.30
2022-07-28T21:39:37.746Z,2.20
2022-07-28T21:44:40.030Z,2.00
2022-07-28T21:49:42.406Z,2.00
2022-07-28T21:54:44.404Z,1.60
2022-07-28T21:59:49.227Z,2.20
2022-07-28T22:04:51.665Z,2.33
2022-07-28T22:09:53.591Z,1.70
2022-07-28T22:14:56.621Z,2.30
2022-07-28T22:19:58.499Z,3.10
2022-07-28T22:25:00.418Z,2.20
2022-07-28T22:30:03.050Z,2.30
2022-07-28T22:35:05.365Z,2.30
2022-07-28T22:40:08.225Z,1.63
2022-07-28T22:45:11.538Z,2.00
2022-07-28T22:50:13.854Z,1.83
2022-07-28T22:55:17.300Z,2.40
2022-07-28T23:00:19.772Z,2.03
2022-07-28T23:05:22.341Z,2.00
2022-07-28T23:10:24.302Z,2.03
2022-07-28T23:15:39.428Z,2.63
2022-07-28T23:20:45.153Z,1.87
2022-07-28T23:25:47.438Z,1.70
2022-07-28T23:30:52.154Z,1.90
2022-07-28T23:35:54.479Z,1.93
2022-07-28T23:40:56.781Z,1.93
2022-07-28T23:45:59.064Z,2.00
2022-07-28T23:51:01.627Z,1.60
2022-07-28T23:56:04.094Z,1.70
